»·PEaware :: N8672U KPDX-KSLE

N8672U :: KPDX-KSLE

FLIGHT INFORMATION

Flight Status: Arrived
Operator: Privately registered:
United States
More flights under this callsign
Pilot: Moritz O. (15865)
Aircraft: PIPER PA-28 CHEROKEE ARCHER
(PA28)
More flights by this aircraft type
Origin: KPDX Portland Intl
United States
Destination: KSLE McNary
United States
More flights between these airports :: More routes between these airports
Route: +PTLD1 UBG
File this flight plan on PilotEdge
Remarks:
Altitude:
(Current/Filed)
4,000ft
Speed:
(Current/Filed)
145kts
Departed: 29-Jun-17 10:12 AM
Arrived: 29-Jun-17 10:51 AM
Distance/Time
Traveled:
44nm/0:39
Distance/Time
To Go:
Arrived

Flight Plot

Page will automatically refresh every two minutes.

Flight plan parsing failed; only flown route is shown


Map Options




Map Legend


Flown Route
Filed Route
Departure Airport
Arrival Airport
Navaid (VOR, NDB)
Fix

Horizontal Profiles

Position Reports

Time Latitude Longitude Heading Altitude Ground
Speed
29-Jun-17 09:45 45.587437 -122.583530 208 19ft 0kts
29-Jun-17 09:46 45.587437 -122.583530 208 19ft 0kts
29-Jun-17 09:47 45.587437 -122.583530 208 19ft 0kts
29-Jun-17 09:48 45.587437 -122.583530 208 19ft 0kts
29-Jun-17 09:49 45.587437 -122.583530 208 19ft 0kts
29-Jun-17 09:50 45.587437 -122.583530 208 19ft 0kts
29-Jun-17 09:51 45.587437 -122.583530 208 19ft 0kts
29-Jun-17 09:52 45.587437 -122.583530 208 19ft 0kts
29-Jun-17 09:53 45.587437 -122.583530 208 19ft 0kts
29-Jun-17 09:54 45.587437 -122.583530 208 19ft 0kts
29-Jun-17 09:55 45.587437 -122.583530 208 19ft 0kts
29-Jun-17 09:56 45.587437 -122.583530 208 19ft 0kts
29-Jun-17 09:57 45.587437 -122.583530 208 19ft 0kts
29-Jun-17 09:58 45.587437 -122.583530 208 19ft 0kts
29-Jun-17 09:59 45.587437 -122.583530 208 19ft 0kts
29-Jun-17 10:00 45.587437 -122.583530 208 19ft 0kts
29-Jun-17 10:01 45.587437 -122.583530 208 19ft 0kts
29-Jun-17 10:02 45.587437 -122.583530 208 19ft 0kts
29-Jun-17 10:03 45.587437 -122.583530 208 19ft 0kts
29-Jun-17 10:04 45.587437 -122.583530 208 19ft 0kts
29-Jun-17 10:05 45.587437 -122.583530 208 19ft 0kts
29-Jun-17 10:06 45.587437 -122.583530 208 19ft 0kts
29-Jun-17 10:07 45.587437 -122.583530 208 19ft 0kts
29-Jun-17 10:08 45.588012 -122.582687 34 19ft 12kts
29-Jun-17 10:09 45.585910 -122.576028 118 19ft 25kts
29-Jun-17 10:10 45.582825 -122.568333 124 19ft 0kts
29-Jun-17 10:11 45.582825 -122.568333 124 19ft 0kts
29-Jun-17 10:12 45.582825 -122.568333 124 19ft 0kts
29-Jun-17 10:13 45.582825 -122.568333 124 19ft 0kts
29-Jun-17 10:14 45.582801 -122.567263 46 19ft 0kts
29-Jun-17 10:15 45.587231 -122.576721 298 177ft 75kts
29-Jun-17 10:16 45.598767 -122.605368 298 1052ft 104kts
29-Jun-17 10:17 45.611241 -122.644340 296 1858ft 110kts
29-Jun-17 10:18 45.623798 -122.683475 298 2647ft 107kts
29-Jun-17 10:19 45.629191 -122.722478 229 3425ft 115kts
29-Jun-17 10:20 45.601348 -122.743375 211 4207ft 112kts
29-Jun-17 10:21 45.575388 -122.765815 215 4985ft 108kts
29-Jun-17 10:22 45.557238 -122.782638 214 5559ft 107kts
29-Jun-17 10:23 45.537270 -122.801593 216 6006ft 122kts
29-Jun-17 10:24 45.504312 -122.833365 216 6004ft 158kts
29-Jun-17 10:25 45.466611 -122.869599 216 5998ft 167kts
29-Jun-17 10:26 45.427866 -122.906751 216 5998ft 169kts
29-Jun-17 10:27 45.389246 -122.943720 216 5997ft 169kts
29-Jun-17 10:28 45.349115 -122.977721 188 5994ft 172kts
29-Jun-17 10:29 45.301280 -122.980894 178 5994ft 172kts
29-Jun-17 10:30 45.257335 -122.955288 154 5997ft 171kts
29-Jun-17 10:31 45.213757 -122.927736 154 5998ft 172kts
29-Jun-17 10:32 45.167220 -122.922831 178 5999ft 172kts
29-Jun-17 10:33 45.121296 -122.917029 173 5998ft 172kts
29-Jun-17 10:34 45.073754 -122.909833 173 5999ft 172kts
29-Jun-17 10:35 45.020928 -122.901851 173 5998ft 172kts
29-Jun-17 10:36 44.967064 -122.893722 173 5999ft 173kts
29-Jun-17 10:37 44.919816 -122.886605 173 5999ft 173kts
29-Jun-17 10:38 44.875407 -122.879938 173 5996ft 172kts
29-Jun-17 10:39 44.859091 -122.877483 173 5903ft 175kts
29-Jun-17 10:40 44.781109 -122.865814 173 5103ft 178kts
29-Jun-17 10:41 44.732601 -122.858582 174 4582ft 148kts
29-Jun-17 10:42 44.692163 -122.855738 177 4066ft 145kts
29-Jun-17 10:43 44.652150 -122.854786 171 3542ft 145kts
29-Jun-17 10:44 44.651977 -122.818986 358 3016ft 125kts
29-Jun-17 10:45 44.680556 -122.833831 355 2992ft 102kts
29-Jun-17 10:46 44.707505 -122.836015 356 2998ft 94kts
29-Jun-17 10:47 44.728383 -122.852904 318 3006ft 105kts
29-Jun-17 10:48 44.759331 -122.880069 331 2703ft 145kts
29-Jun-17 10:49 44.794890 -122.908700 331 2219ft 148kts
29-Jun-17 10:50 44.827109 -122.934703 331 1858ft 93kts
29-Jun-17 10:51 44.849586 -122.952845 331 1405ft 98kts
29-Jun-17 10:52 44.873494 -122.972152 330 893ft 100kts
29-Jun-17 10:53 44.896466 -122.990755 330 426ft 82kts
29-Jun-17 10:54 44.908255 -123.000336 332 209ft 26kts

Navigation Log

Ident Type
Flight plan parsing failed, navigation log unavailable